Station SHBL1 - 8761305 - Shell Beach, LA Image indicating link to RSS feed of recent meteorological observations for station SHBL1


Conditions at SHBL1 as of
(7:00 am CDT)
1200 GMT on 09/01/2026:
     

Click on the graph icon in the table below to see a time series plot of the last five days of that observation.

5-day plot - Wind Direction Wind Direction (WDIR):ESE ( 110 deg true )
5-day plot - Wind Speed Wind Speed (WSPD): 6.0 kts
5-day plot - Wind Gust Wind Gust (GST): 7.0 kts
5-day plot - Atmospheric Pressure Atmospheric Pressure (PRES):30.01 in
5-day plot - Pressure Tendency Pressure Tendency (PTDY):+0.04 in ( Rising )
5-day plot - Air Temperature Air Temperature (ATMP): 82.8 °F
5-day plot - Wind Speed at 10 Meters Wind Speed at 10 meters (WSPD10M): 5.8 kts
5-day plot - Wind Speed at 20 Meters Wind Speed at 20 meters (WSPD20M): 5.8 kts
5-day plot -  Wind Speed, Wind Gust and Atmospheric Pressure Combined plot of Wind Speed, Gust, and Air Pressure
NOS Water Level Observation Network Water Level
Previous observations
TIME
(CDT)
5-day plot - Wind Direction
WDIR
 
5-day plot - Wind Speed
WSPD
kts
5-day plot - Wind Gust
GST
kts
5-day plot - Wave Height
WVHT
ft
5-day plot - Dominant Wave Period
DPD
sec
5-day plot - Average Wave Period
APD
sec
5-day plot - Mean Wave Direction
MWD
 
5-day plot - Atmospheric Pressure
PRES
in
5-day plot - Pressure Tendency
PTDY
in
5-day plot - Air Temperature
ATMP
°F
5-day plot - Water Temperature
WTMP
°F
5-day plot - Dew Point
DEWP
°F
5-day plot - Salinity
SAL
psu
5-day plot - Visibility
VIS
nmi
5-day plot - Tide (above MLLW)
TIDE
ft
2026-09-01 06:54 amESE 6.0 6.0----30.00- 82.8-----
2026-09-01 06:48 amESE 5.1 6.0----30.00- 82.9-----
2026-09-01 06:42 amESE 5.1 6.0----29.99- 82.8-----
2026-09-01 06:36 amESE 5.1 6.0----29.99- 82.9-----
2026-09-01 06:30 amESE 5.1 7.0----29.99- 82.8-----
2026-09-01 06:24 am E 6.0 7.0----29.99- 82.8-----
2026-09-01 06:18 am E 6.0 6.0----29.98-------
2026-09-01 06:12 amESE 5.1 6.0----29.98-------
2026-09-01 06:06 amESE 5.1 7.0----29.98-------
2026-09-01 06:00 amESE 5.1 7.0----29.97+0.00 82.4-----
2026-09-01 05:54 amESE 6.0 7.0----29.97- 82.4-----
2026-09-01 05:48 amESE 6.0 8.0----29.97- 82.6-----
2026-09-01 05:42 amESE 7.0 8.0----29.97- 82.6-----
2026-09-01 05:36 amESE 7.0 8.0----29.97- 82.6-----
2026-09-01 05:30 amESE 6.0 7.0----29.97- 82.8-----
2026-09-01 05:24 am E 6.0 7.0----29.97- 82.6-----
2026-09-01 05:18 am E 6.0 6.0----29.97-------
2026-09-01 05:12 amESE 5.1 5.1----29.97-------
2026-09-01 05:06 amESE 4.1 5.1----29.98-------
2026-09-01 05:00 amESE 4.1 4.1----29.98- 82.4-----
2026-09-01 04:54 amESE 4.1 4.1----29.98- 82.4-----
2026-09-01 04:48 amESE 2.9 4.1----29.98- 82.4-----
2026-09-01 04:42 am SE 2.9 4.1----29.98- 82.0-----
2026-09-01 04:36 am SE 2.9 4.1----29.97- 82.2-----
2026-09-01 04:30 am SE 2.9 4.1----29.97- 82.0-----
2026-09-01 04:24 am SE 4.1 5.1----29.97- 81.7-----
2026-09-01 04:18 amSSE 5.1 6.0----29.97-------
2026-09-01 04:12 amSSE 6.0 7.0----29.97-------
2026-09-01 04:06 am SE 5.1 7.0----29.97-------
2026-09-01 04:00 am SE 5.1 7.0----29.97-0.02 82.0-----
2026-09-01 03:54 am SE 6.0 7.0----29.97- 82.0-----
2026-09-01 03:48 am SE 6.0 7.0----29.97-------
2026-09-01 03:42 am SE 5.1 6.0----29.97-------
2026-09-01 03:36 am SE 5.1 6.0----29.97-------
2026-09-01 03:30 am SE 5.1 6.0----29.97- 82.4-----
2026-09-01 03:24 am SE 5.1 6.0----29.97- 82.4-----
2026-09-01 03:18 am SE 6.0 7.0----29.97-------
2026-09-01 03:12 amESE 6.0 7.0----29.97-------
2026-09-01 03:06 am SE 6.0 7.0----29.97-------
2026-09-01 03:00 amESE 6.0 7.0----29.97-0.02 82.4-----
2026-09-01 02:54 amESE 6.0 7.0----29.97- 82.2-----
2026-09-01 02:48 amESE 6.0 8.0----29.98- 82.4-----
2026-09-01 02:42 amESE 5.1 7.0----29.98- 82.4-----
2026-09-01 02:36 am SE 6.0 7.0----29.98- 82.4-----
2026-09-01 02:30 amESE 6.0 8.0----29.98- 82.4-----
2026-09-01 02:24 amESE 5.1 6.0----29.98- 82.4-----
2026-09-01 02:18 am SE 5.1 7.0----29.98- 82.4-----
2026-09-01 02:12 amESE 5.1 7.0----29.98- 82.4-----
2026-09-01 02:06 am SE 5.1 7.0----29.98- 82.4-----
2026-09-01 02:00 am SE 6.0 7.0------ 82.4-----
2026-09-01 01:54 am SE 6.0 7.0------ 82.4-----
2026-09-01 01:48 am SE 6.0 8.0----29.98- 82.2-----
2026-09-01 01:42 am SE 7.0 8.0----29.98- 82.2-----
2026-09-01 01:36 am SE 6.0 8.0----29.98- 82.4-----
2026-09-01 01:30 am SE 7.0 8.0----29.98-------
2026-09-01 01:24 amESE 7.0 8.0----29.99-------
2026-09-01 01:18 amESE 7.0 8.9----29.99-------
2026-09-01 01:12 amESE 8.0 8.9----29.99-------
2026-09-01 01:06 am SE 7.0 8.9----29.99-------
2026-09-01 01:00 am SE 7.0 8.9----29.99+0.00 82.6-----
2026-09-01 12:54 am SE 8.0 8.9----29.99- 82.6-----
2026-09-01 12:48 am SE 7.0 8.9----29.99- 82.6-----
2026-09-01 12:42 am SE 7.0 8.9----29.99- 82.8-----
2026-09-01 12:36 am SE 8.0 9.9----29.99- 82.8-----
2026-09-01 12:30 am SE 8.0 9.9----29.99- 82.8-----
2026-09-01 12:24 am SE 8.0 9.9----29.99- 82.8-----
2026-09-01 12:18 am SE 8.9 9.9----29.99-------
2026-09-01 12:12 am SE 8.9 9.9----29.99-------
2026-09-01 12:06 amESE 8.0 11.1----29.99-------
2026-09-01 12:00 am SE 8.0 11.1----29.99+0.01 82.9-----
2026-08-31 11:54 pm SE 8.9 11.1----29.99- 82.9-----
2026-08-31 11:48 pmESE 9.9 12.0----29.99- 82.8-----
2026-08-31 11:42 pmESE 8.9 11.1----30.00- 82.8-----
2026-08-31 11:36 pmESE 8.0 9.9----30.00- 82.8-----
2026-08-31 11:30 pmESE 8.0 9.9----30.00- 82.6-----
2026-08-31 11:24 pm SE 7.0 8.9----30.00- 82.4-----
2026-08-31 11:18 pm SE 7.0 8.0----30.00-------
2026-08-31 11:12 pm SE 7.0 8.9----30.00-------
2026-08-31 11:06 pmESE 8.9 9.9----30.00-------
2026-08-31 11:00 pmESE 8.0 8.9----30.00+0.04 83.3-----
2026-08-31 10:54 pmESE 8.0 8.9----30.00- 83.3-----
2026-08-31 10:48 pmESE 7.0 8.0----30.00-------
2026-08-31 10:42 pmESE 7.0 8.0----30.00-------
2026-08-31 10:36 pmESE 7.0 8.9----29.99-------
2026-08-31 10:30 pmESE 8.0 9.9----29.99- 83.5-----
2026-08-31 10:24 pm E 8.9 9.9----29.99- 83.5-----
2026-08-31 10:18 pm E 8.9 11.1------------
2026-08-31 10:12 pm E 8.9 9.9------------
2026-08-31 10:06 pm E 8.9 11.1------------
2026-08-31 10:00 pm E 8.9 12.0----29.98+0.02 83.5-----
2026-08-31 09:54 pm E 9.9 12.0----29.98- 83.5-----
2026-08-31 09:48 pm E 9.9 12.0----29.98- 83.5-----
2026-08-31 09:42 pm E 11.1 12.0----29.98- 83.3-----
2026-08-31 09:36 pm E 9.9 12.0----29.98- 83.5-----
2026-08-31 09:30 pm E 9.9 12.0----29.98- 83.7-----
2026-08-31 09:24 pm E 11.1 13.0----29.98- 83.3-----
2026-08-31 09:18 pm E 11.1 13.0----29.98-------
2026-08-31 09:12 pm E 12.0 14.0----29.98-------
2026-08-31 09:06 pm E 13.0 14.0----29.98-------
2026-08-31 09:00 pm E 12.0 13.0----29.98+0.00 83.8-----
2026-08-31 08:54 pm E 12.0 14.0----29.98- 83.7-----
2026-08-31 08:48 pm E 12.0 14.0----29.98- 83.5-----
2026-08-31 08:42 pm E 11.1 13.0----29.97- 83.8-----
2026-08-31 08:36 pm E 11.1 12.0----29.97- 83.8-----
2026-08-31 08:30 pm E 9.9 12.0----29.96- 83.8-----
2026-08-31 08:24 pm E 11.1 12.0----29.96- 83.7-----
2026-08-31 08:18 pm E 11.1 13.0----29.96-------
2026-08-31 08:12 pm E 11.1 13.0----29.96-------
2026-08-31 08:06 pm E 9.9 12.0----29.96-------
2026-08-31 08:00 pm E 11.1 12.0----29.96-0.02 83.8-----
2026-08-31 07:54 pm E 9.9 11.1----29.96- 83.8-----
2026-08-31 07:48 pm E 9.9 12.0----29.96-------
2026-08-31 07:42 pm E 9.9 12.0----29.96-------
2026-08-31 07:36 pm E 9.9 12.0----29.96-------
2026-08-31 07:30 pm E 9.9 11.1----29.96- 84.0-----
2026-08-31 07:24 pm E 9.9 12.0----29.96- 84.0-----
2026-08-31 07:18 pmESE 9.9 11.1----29.96-------
2026-08-31 07:12 pmESE 9.9 11.1----29.96-------
2026-08-31 07:06 pmESE 8.9 12.0----29.96-------
2026-08-31 07:00 pmESE 11.1 12.0----29.96-0.02 84.4-----
2026-08-31 06:54 pmESE 8.9 12.0----29.96- 84.7-----
2026-08-31 06:48 pm E 11.1 12.0----29.96-------
2026-08-31 06:42 pmESE 11.1 13.0----29.96-------
2026-08-31 06:36 pmESE 12.0 14.0----29.97-------
2026-08-31 05:48 pmESE 12.0 14.0----29.98- 85.8-----
2026-08-31 05:42 pmESE 12.0 15.0----29.98- 86.0-----
2026-08-31 05:36 pm E 14.0 15.9----29.97- 86.0-----
2026-08-31 05:30 pmESE 14.0 15.9----29.97- 86.0-----
2026-08-31 05:24 pm E 13.0 15.0----29.98- 86.0-----
2026-08-31 05:18 pm SE 13.0 15.9----29.98- 86.2-----
2026-08-31 05:12 pmESE 12.0 14.0----29.98- 86.2-----
2026-08-31 05:06 pmESE 12.0 15.0----29.98- 86.2-----
2026-08-31 05:00 pmESE 12.0 13.0----29.98-0.03 86.4-----
2026-08-31 04:54 pm E 11.1 13.0----29.98- 86.5-----
2026-08-31 04:48 pm E 12.0 13.0----29.98- 86.0-----
2026-08-31 04:42 pm E 12.0 14.0----29.97- 85.5-----
2026-08-31 04:36 pm E 9.9 12.0----29.97- 85.8-----
2026-08-31 04:30 pm E 9.9 13.0----29.97- 85.8-----
2026-08-31 04:24 pmESE 11.1 13.0----29.98- 85.8-----
2026-08-31 04:18 pm E 12.0 15.0----29.98-------
2026-08-31 04:12 pm E 12.0 14.0----29.98-------
2026-08-31 04:06 pmESE 12.0 13.0----29.98-------
2026-08-31 04:00 pmESE 11.1 13.0----29.98-0.04 85.8-----
2026-08-31 03:54 pmESE 13.0 15.0----29.98- 85.3-----
2026-08-31 03:48 pmESE 13.0 15.0----29.98- 85.3-----
2026-08-31 03:42 pm E 12.0 15.0----29.98- 85.3-----
2026-08-31 03:36 pm E 12.0 14.0----29.98- 85.3-----
2026-08-31 03:30 pm E 11.1 13.0----29.98- 85.1-----
2026-08-31 03:24 pm E 8.9 11.1----29.98- 84.9-----
2026-08-31 03:18 pm E 9.9 11.1----29.99-------
2026-08-31 03:12 pm E 9.9 11.1----29.99-------
2026-08-31 03:06 pm E 9.9 12.0----29.99-------
2026-08-31 03:00 pm E 9.9 12.0----29.99-0.03 84.6-----
2026-08-31 02:54 pm E 11.1 13.0----29.99- 84.6-----
2026-08-31 02:48 pm E 11.1 13.0----29.99- 84.2-----
2026-08-31 02:42 pm E 12.0 15.9----29.99- 83.3-----
2026-08-31 02:36 pm E 12.0 14.0----29.99- 83.8-----
2026-08-31 02:30 pm E 13.0 15.9----30.00- 83.7-----
2026-08-31 02:24 pm E 15.0 17.1----30.00- 84.2-----
2026-08-31 02:18 pmESE 14.0 17.1----30.00-------
2026-08-31 02:12 pmESE 15.0 17.1----30.00-------
2026-08-31 02:06 pmESE 15.0 17.1----30.00-------
2026-08-31 02:00 pmESE 12.0 19.0----30.01-0.03 85.5-----
2026-08-31 01:54 pmESE 17.1 19.0----30.00- 84.9-----
2026-08-31 01:48 pmESE 13.0 15.9----30.01- 84.7-----
2026-08-31 01:42 pm E 13.0 15.0----30.01- 84.4-----
2026-08-31 01:36 pm E 9.9 12.0----30.01- 84.2-----
2026-08-31 01:30 pmESE 9.9 13.0----30.01- 84.4-----
2026-08-31 01:24 pmESE 8.9 12.0----30.01- 84.4-----
2026-08-31 01:18 pmESE 8.9 12.0----30.01-------
2026-08-31 01:12 pm E 8.9 11.1----30.02-------
2026-08-31 01:06 pm E 9.9 11.1----30.02-------
2026-08-31 01:00 pmESE 9.9 12.0----30.02+0.01 83.3-----
2026-08-31 12:54 pmESE 9.9 11.1----30.03- 82.9-----
2026-08-31 12:48 pmESE 11.1 15.0----30.03-------
2026-08-31 12:42 pmESE 12.0 14.0----30.03-------
2026-08-31 12:36 pmESE 11.1 14.0----30.03-------
2026-08-31 12:30 pmESE 12.0 15.9----30.02- 83.3-----
2026-08-31 12:24 pm E 12.0 15.0----30.02- 83.5-----
2026-08-31 12:18 pmESE 12.0 15.0----30.02-------
2026-08-31 12:12 pm E 14.0 17.1----30.02-------
2026-08-31 12:06 pmESE 14.0 17.1----30.02-------
2026-08-31 12:00 pm E 13.0 15.0----30.02+0.02 82.0-----
2026-08-31 11:54 am E 11.1 13.0----30.03- 82.0-----
2026-08-31 11:48 am E 9.9 12.0----30.03- 81.7-----
2026-08-31 11:42 am E 9.9 14.0----30.03- 82.0-----
2026-08-31 11:36 am E 14.0 15.9----30.03- 82.0-----
2026-08-31 11:30 am E 13.0 15.9----30.03- 83.1-----
2026-08-31 11:24 am E 15.0 18.1----30.03- 84.0-----
2026-08-31 11:18 am E 13.0 15.0----30.03-------
2026-08-31 11:12 am E 9.9 12.0----30.03-------
2026-08-31 11:06 am E 8.0 11.1----30.04-------
2026-08-31 11:00 amENE 8.0 9.9----30.03+0.04 84.7-----
2026-08-31 10:54 am E 9.9 12.0----30.03- 84.6-----
2026-08-31 10:48 am E 8.0 11.1----30.03- 84.0-----
2026-08-31 10:42 am E 11.1 12.0----30.03- 84.0-----
2026-08-31 10:36 am E 8.9 13.0----30.03- 84.0-----
2026-08-31 10:30 am E 8.0 9.9----30.03- 84.0-----
2026-08-31 10:24 am E 7.0 9.9----30.03- 83.8-----
2026-08-31 10:18 amENE 7.0 9.9----30.03-------
2026-08-31 10:12 amESE 9.9 12.0----30.02-------
2026-08-31 10:06 am E 12.0 14.0----30.02-------
2026-08-31 10:00 am E 12.0 13.0----30.01+0.04 83.5-----
2026-08-31 09:54 amESE 9.9 13.0----30.01- 83.7-----
2026-08-31 09:48 amESE 11.1 12.0----30.01- 83.3-----
2026-08-31 09:42 am SE 9.9 12.0----30.01- 82.9-----
2026-08-31 09:36 amESE 8.9 11.1----30.01- 82.6-----
2026-08-31 09:30 am SE 11.1 13.0----30.01- 82.2-----
2026-08-31 09:24 am SE 7.0 11.1----30.01- 82.0-----
2026-08-31 09:18 am SE 8.9 12.0----30.01-------
2026-08-31 09:12 am SE 8.9 11.1----30.01-------
2026-08-31 09:06 am SE 8.0 11.1----30.01-------
2026-08-31 09:00 am SE 9.9 12.0----30.01+0.05 81.5-----
2026-08-31 08:54 am SE 9.9 13.0----30.00- 81.5-----
2026-08-31 08:48 am SE 9.9 12.0----30.00-------
2026-08-31 08:42 am E 11.1 12.0----30.00-------
2026-08-31 08:36 am E 11.1 12.0----30.00-------
2026-08-31 08:30 am E 11.1 12.0----30.00- 84.2-----
2026-08-31 08:24 am E 9.9 12.0----30.00- 83.8-----
2026-08-31 08:18 am E 9.9 11.1----30.00-------
2026-08-31 08:12 am E 9.9 11.1----29.99-------
2026-08-31 08:06 am E 9.9 12.0----29.99-------
2026-08-31 08:00 am E 9.9 11.1----29.99+0.03 83.3-----
2026-08-31 07:54 am E 8.9 9.9----29.99- 83.3-----
2026-08-31 07:48 am E 8.9 9.9----29.98-------
2026-08-31 07:42 am E 8.9 9.9----29.98-------
2026-08-31 07:36 am E 8.0 9.9----29.98-------
2026-08-31 07:30 am E 8.0 8.9----29.98- 83.1-----
2026-08-31 07:24 am E 8.9 9.9----29.98- 82.9-----
2026-08-31 07:18 am E 8.0 9.9----29.98-------
2026-08-31 07:12 am E 8.9 9.9----29.98-------
2026-08-31 07:06 am E 8.0 9.9----29.98-------
2026-08-31 07:00 am E 8.9 9.9----29.97+0.03 82.9-----
2026-08-31 06:54 am E 8.9 9.9----29.97- 82.9-----